Time;durP1;ratioP1;P1;durP2;ratioP2;P2;SDS_P1;SDS_P2;PMS_P1;PMS_P2;Temp;Humidity;BMP_temperature;BMP_pressure;BME280_temperature;BME280_humidity;BME280_pressure;Samples;Min_cycle;Max_cycle;Signal;HPM_P1;HPM_P2
2022/03/28 00:00:09;;;;;;;16.77;10.03;;;;;;;5.47;73.62;101979.56;4996905;28;20215;-81
2022/03/28 00:02:37;;;;;;;17.70;10.87;;;;;;;5.42;73.11;101974.34;4997146;28;20207;-82
2022/03/28 00:05:04;;;;;;;19.77;10.53;;;;;;;5.35;73.60;101967.47;4996631;28;20238;-81
2022/03/28 00:07:30;;;;;;;20.17;10.50;;;;;;;5.30;73.68;101973.75;4996367;28;20216;-82
2022/03/28 00:09:57;;;;;;;17.97;9.93;;;;;;;5.26;73.97;101966.78;4996419;28;20196;-82
2022/03/28 00:12:23;;;;;;;19.57;11.17;;;;;;;5.20;74.50;101962.50;4995647;28;20207;-82
2022/03/28 00:14:50;;;;;;;21.93;12.03;;;;;;;5.17;74.44;101960.81;4995760;28;20203;-82
2022/03/28 00:17:18;;;;;;;21.10;10.60;;;;;;;5.15;74.93;101953.81;4995987;28;20212;-82
2022/03/28 00:19:45;;;;;;;19.47;11.13;;;;;;;5.14;74.92;101962.63;4996476;28;20223;-82
2022/03/28 00:22:11;;;;;;;19.17;10.73;;;;;;;5.12;75.23;101959.16;4996554;28;20805;-81
2022/03/28 00:24:38;;;;;;;20.00;11.67;;;;;;;5.12;75.44;101960.00;4997301;28;20204;-81
2022/03/28 00:27:05;;;;;;;24.13;11.60;;;;;;;5.10;75.82;101956.53;4996119;28;20229;-81
2022/03/28 00:29:31;;;;;;;26.53;14.07;;;;;;;5.09;75.91;101948.63;4995180;28;20210;-81
2022/03/28 00:31:58;;;;;;;26.47;12.77;;;;;;;5.08;75.88;101947.78;4994495;28;20222;-82
2022/03/28 00:34:26;;;;;;;25.17;11.80;;;;;;;5.08;76.30;101945.13;4995025;28;20242;-81
2022/03/28 00:36:53;;;;;;;28.03;13.03;;;;;;;5.06;76.15;101944.28;4994469;28;20769;-83
2022/03/28 00:39:20;;;;;;;20.23;11.13;;;;;;;5.04;76.09;101940.81;4994594;28;20204;-82
2022/03/28 00:41:47;;;;;;;16.50;9.60;;;;;;;4.97;75.48;101940.97;4995839;28;20210;-82
2022/03/28 00:44:14;;;;;;;17.63;9.83;;;;;;;4.86;75.12;101934.13;4995308;28;20207;-81
2022/03/28 00:46:41;;;;;;;19.57;11.00;;;;;;;4.80;75.65;101926.34;4995976;28;20231;-81
2022/03/28 00:49:07;;;;;;;19.50;10.23;;;;;;;4.76;75.37;101929.94;4995807;28;20215;-81
2022/03/28 00:51:35;;;;;;;18.90;10.97;;;;;;;4.72;75.91;101920.31;4996011;28;20211;-81
2022/03/28 00:54:02;;;;;;;16.70;9.77;;;;;;;4.70;76.07;101914.19;4994437;28;20238;-81
2022/03/28 00:56:29;;;;;;;19.37;11.10;;;;;;;4.70;76.40;101918.59;4986457;28;20219;-81
2022/03/28 00:58:55;;;;;;;21.73;11.83;;;;;;;4.69;76.55;101911.59;4994885;28;20678;-82
2022/03/28 01:01:22;;;;;;;19.87;11.30;;;;;;;4.69;77.06;101914.22;4995783;28;20583;-82
2022/03/28 01:03:48;;;;;;;19.10;11.23;;;;;;;4.66;76.55;101901.94;4995644;28;20211;-81
2022/03/28 01:06:16;;;;;;;17.87;10.67;;;;;;;4.59;76.34;101897.72;4994674;28;20455;-82
2022/03/28 01:08:44;;;;;;;16.80;10.80;;;;;;;4.53;76.77;101893.41;4995549;28;20215;-82
2022/03/28 01:11:10;;;;;;;20.53;11.17;;;;;;;4.50;76.99;101893.47;4995116;28;20208;-81
2022/03/28 01:13:39;;;;;;;21.63;12.27;;;;;;;4.50;77.54;101901.38;4995295;28;20236;-82
2022/03/28 01:16:06;;;;;;;18.90;11.87;;;;;;;4.49;77.35;101891.72;5002084;28;20223;-81
2022/03/28 01:18:33;;;;;;;19.30;11.10;;;;;;;4.49;77.79;101882.94;5015215;28;20221;-82
2022/03/28 01:21:01;;;;;;;22.97;11.50;;;;;;;4.50;77.91;101889.94;5004982;28;20203;-82
2022/03/28 01:23:28;;;;;;;21.47;12.23;;;;;;;4.49;78.23;101888.22;4993121;28;20867;-81
2022/03/28 01:25:56;;;;;;;19.60;9.80;;;;;;;4.47;78.23;101888.25;4994122;28;20232;-82
2022/03/28 01:28:24;;;;;;;20.60;11.57;;;;;;;4.43;77.92;101885.69;4994931;28;20211;-82
2022/03/28 01:30:53;;;;;;;21.83;11.63;;;;;;;4.35;78.26;101884.97;4994697;28;20208;-82
2022/03/28 01:33:19;;;;;;;20.13;10.70;;;;;;;4.29;78.17;101883.31;4995685;28;20347;-82
2022/03/28 01:35:46;;;;;;;21.27;11.27;;;;;;;4.21;78.74;101879.94;4993997;28;20231;-82
2022/03/28 01:38:16;;;;;;;21.23;10.77;;;;;;;4.15;78.21;101880.91;4978072;28;20208;-81
2022/03/28 01:40:44;;;;;;;18.47;10.73;;;;;;;4.10;78.52;101879.25;4975973;28;20216;-81
2022/03/28 01:43:11;;;;;;;18.60;10.30;;;;;;;4.07;79.38;101877.53;4975908;28;20204;-81
2022/03/28 01:45:38;;;;;;;16.63;10.17;;;;;;;4.04;79.02;101874.09;4984931;28;20756;-79
2022/03/28 01:48:06;;;;;;;18.90;10.37;;;;;;;4.01;79.14;101877.63;5001424;28;20207;-80
2022/03/28 01:50:33;;;;;;;17.77;10.77;;;;;;;4.00;79.77;101875.91;5012585;28;20207;-81
2022/03/28 01:52:59;;;;;;;22.20;11.40;;;;;;;4.01;79.48;101875.00;4999468;28;20222;-80
2022/03/28 01:55:28;;;;;;;21.50;12.23;;;;;;;4.01;80.14;101879.41;4997959;28;21083;-80
2022/03/28 01:57:54;;;;;;;21.70;12.43;;;;;;;4.01;80.05;101874.13;4997426;28;20211;-79
2022/03/28 02:00:23;;;;;;;19.60;11.33;;;;;;;4.00;79.92;101870.63;4997309;28;21943;-79
2022/03/28 02:02:50;;;;;;;22.97;11.87;;;;;;;4.01;80.08;101871.50;4997733;28;20231;-81
2022/03/28 02:05:17;;;;;;;19.57;10.60;;;;;;;3.99;80.67;101866.25;4997487;28;20245;-80
2022/03/28 02:07:46;;;;;;;16.53;11.17;;;;;;;3.99;80.41;101860.97;4978537;28;20216;-79
2022/03/28 02:10:15;;;;;;;20.27;11.47;;;;;;;3.96;80.56;101861.03;4978417;28;20267;-79
2022/03/28 02:12:43;;;;;;;19.50;11.23;;;;;;;3.92;80.85;101856.72;4981998;28;20204;-79
2022/03/28 02:15:11;;;;;;;20.80;11.70;;;;;;;3.88;80.33;101860.28;4978651;28;20239;-79
2022/03/28 02:17:38;;;;;;;18.93;11.67;;;;;;;3.85;80.98;101841.91;4978667;28;20817;-80
2022/03/28 02:20:06;;;;;;;19.27;10.67;;;;;;;3.82;80.71;101839.31;4984492;28;20191;-79
2022/03/28 02:22:33;;;;;;;15.23;10.10;;;;;;;3.81;80.81;101846.34;4998130;28;20211;-79
2022/03/28 02:25:00;;;;;;;20.70;11.53;;;;;;;3.78;80.60;101848.16;4997766;28;20694;-79
2022/03/28 02:27:26;;;;;;;22.07;11.80;;;;;;;3.71;80.53;101849.16;4997474;28;20216;-79
2022/03/28 02:29:54;;;;;;;22.27;11.33;;;;;;;3.65;80.23;101839.56;4998382;28;20730;-79
2022/03/28 02:32:21;;;;;;;28.03;12.40;;;;;;;3.62;81.50;101830.84;5003338;28;20291;-79
2022/03/28 02:34:48;;;;;;;25.03;11.70;;;;;;;3.61;81.09;101829.97;4991994;28;20221;-79
2022/03/28 02:37:15;;;;;;;22.00;12.87;;;;;;;3.61;81.16;101829.97;4996602;28;20211;-79
2022/03/28 02:39:41;;;;;;;22.93;13.37;;;;;;;3.63;81.80;101824.69;4997704;28;20211;-80
2022/03/28 02:42:09;;;;;;;22.20;12.40;;;;;;;3.62;81.66;101823.81;4997610;28;20203;-80
2022/03/28 02:44:36;;;;;;;21.83;12.13;;;;;;;3.62;81.66;101821.19;4996778;28;20200;-80
2022/03/28 02:47:05;;;;;;;26.97;14.20;;;;;;;3.61;81.35;101814.16;4996970;28;20224;-79
2022/03/28 02:49:31;;;;;;;25.90;13.17;;;;;;;3.61;81.38;101810.66;4999747;28;20200;-81
2022/03/28 02:51:58;;;;;;;28.97;14.60;;;;;;;3.60;82.31;101806.28;5010800;28;20490;-80
2022/03/28 02:54:24;;;;;;;28.27;14.53;;;;;;;3.60;81.55;101806.28;5002457;28;20310;-80
2022/03/28 02:56:51;;;;;;;23.00;12.53;;;;;;;3.58;81.68;101810.75;5001823;28;20296;-79
2022/03/28 02:59:17;;;;;;;23.53;11.73;;;;;;;3.53;81.93;101807.31;5001127;28;20212;-79
2022/03/28 03:01:46;;;;;;;19.47;11.00;;;;;;;3.45;81.89;101803.00;5001121;28;20671;-79
2022/03/28 03:04:14;;;;;;;19.23;11.03;;;;;;;3.36;80.86;101800.53;5001048;28;20298;-79
2022/03/28 03:06:40;;;;;;;20.13;11.30;;;;;;;3.31;81.19;101793.59;5000875;28;20737;-79
2022/03/28 03:09:07;;;;;;;23.73;12.43;;;;;;;3.27;80.80;101789.25;4998260;28;20219;-80
2022/03/28 03:11:33;;;;;;;25.50;12.90;;;;;;;3.22;81.22;101784.09;4998678;28;20214;-79
2022/03/28 03:14:02;;;;;;;25.40;12.87;;;;;;;3.20;81.18;101791.13;4997643;28;20285;-79
2022/03/28 03:16:29;;;;;;;20.03;12.20;;;;;;;3.16;80.86;101788.56;4980914;28;20284;-80
2022/03/28 03:18:55;;;;;;;20.80;11.43;;;;;;;3.10;80.94;101777.22;4978912;28;20219;-79
2022/03/28 03:21:24;;;;;;;25.30;12.67;;;;;;;3.06;81.04;101777.28;4978796;28;20581;-79
2022/03/28 03:23:50;;;;;;;28.53;13.77;;;;;;;3.06;81.18;101777.28;4995506;28;20195;-79
2022/03/28 03:26:17;;;;;;;26.03;13.43;;;;;;;3.06;81.96;101772.00;5001558;28;20232;-79
2022/03/28 03:28:43;;;;;;;30.00;13.13;;;;;;;3.05;81.72;101773.78;5002488;28;20215;-79
2022/03/28 03:31:10;;;;;;;27.27;12.20;;;;;;;3.05;82.07;101775.53;5004115;28;20210;-79
2022/03/28 03:33:37;;;;;;;25.83;12.83;;;;;;;3.03;81.83;101772.97;5002354;28;20254;-80
2022/03/28 03:36:03;;;;;;;25.10;12.67;;;;;;;3.02;81.82;101771.22;5008622;28;20274;-80
2022/03/28 03:38:31;;;;;;;28.07;13.70;;;;;;;3.02;81.63;101775.63;5006416;28;20204;-81
2022/03/28 03:40:58;;;;;;;26.67;13.17;;;;;;;3.01;82.09;101776.50;5008274;28;20206;-81
2022/03/28 03:43:25;;;;;;;25.03;13.50;;;;;;;3.02;82.76;101779.13;5004465;28;20206;-77
2022/03/28 03:45:52;;;;;;;28.27;13.27;;;;;;;3.01;82.17;101779.13;5007581;28;20220;-80
2022/03/28 03:48:19;;;;;;;27.17;13.33;;;;;;;3.02;83.11;101781.75;5006480;28;20214;-81
2022/03/28 03:50:46;;;;;;;26.07;13.53;;;;;;;3.03;83.00;101779.97;5006603;28;20215;-80
2022/03/28 03:53:14;;;;;;;27.20;13.63;;;;;;;3.04;82.73;101777.34;5004575;28;20654;-78
2022/03/28 03:55:42;;;;;;;29.30;13.30;;;;;;;3.04;83.12;101771.19;5003915;28;20261;-78
2022/03/28 03:58:11;;;;;;;23.30;12.67;;;;;;;3.05;82.97;101767.63;5005096;28;20203;-78
2022/03/28 04:00:38;;;;;;;29.37;13.03;;;;;;;3.03;83.18;101765.06;5005609;28;20199;-79
2022/03/28 04:03:06;;;;;;;23.87;13.37;;;;;;;3.01;82.97;101781.75;5001725;28;20291;-80
2022/03/28 04:05:37;;;;;;;26.63;13.53;;;;;;;2.95;82.99;101777.44;5001408;28;20273;-80
2022/03/28 04:08:04;;;;;;;25.87;13.43;;;;;;;2.92;82.67;101776.63;4998953;28;20215;-80
2022/03/28 04:10:34;;;;;;;22.30;12.67;;;;;;;2.91;83.19;101775.75;4999942;28;20207;-77
2022/03/28 04:13:05;;;;;;;28.80;13.70;;;;;;;2.88;83.43;101775.78;4998839;28;20214;-80
2022/03/28 04:15:32;;;;;;;29.63;13.63;;;;;;;2.88;83.37;101772.28;4999445;28;20238;-81
2022/03/28 04:17:58;;;;;;;29.10;13.33;;;;;;;2.87;83.08;101767.91;4998580;28;20203;-81
2022/03/28 04:20:25;;;;;;;27.00;14.23;;;;;;;2.83;82.89;101764.47;4998829;28;20203;-81
2022/03/28 04:22:52;;;;;;;28.33;14.80;;;;;;;2.79;83.15;101754.88;4998327;28;20211;-81
2022/03/28 04:25:19;;;;;;;25.67;13.57;;;;;;;2.76;83.18;101749.66;4998268;28;20223;-81
2022/03/28 04:27:45;;;;;;;27.97;13.07;;;;;;;2.74;84.14;101752.28;4996649;28;20298;-79
2022/03/28 04:30:14;;;;;;;26.23;10.70;;;;;;;2.72;83.61;101751.44;4997933;28;20203;-79
2022/03/28 04:32:41;;;;;;;20.23;10.70;;;;;;;2.64;83.07;101745.44;4998221;28;20208;-77
2022/03/28 04:35:10;;;;;;;18.70;10.50;;;;;;;2.54;83.01;101750.81;4999107;28;20726;-77
2022/03/28 04:37:38;;;;;;;19.50;10.57;;;;;;;2.47;83.46;101747.41;4999225;28;20219;-79
2022/03/28 04:40:08;;;;;;;24.03;11.43;;;;;;;2.41;83.32;101743.09;4998154;28;20213;-78
2022/03/28 04:42:35;;;;;;;21.07;11.03;;;;;;;2.38;84.03;101745.75;4999188;28;20295;-80
2022/03/28 04:45:05;;;;;;;20.20;10.97;;;;;;;2.37;84.01;101740.50;4999150;28;20202;-78
2022/03/28 04:47:33;;;;;;;24.63;12.37;;;;;;;2.36;83.41;101744.03;4999351;28;20228;-77
2022/03/28 04:50:00;;;;;;;26.13;13.37;;;;;;;2.34;84.29;101745.81;4998899;28;20204;-78
2022/03/28 04:52:27;;;;;;;25.20;13.67;;;;;;;2.35;84.39;101747.53;4999746;28;20220;-77
2022/03/28 04:54:54;;;;;;;22.17;12.63;;;;;;;2.35;84.03;101744.91;5003070;28;20220;-77
2022/03/28 04:57:20;;;;;;;22.17;11.77;;;;;;;2.35;84.31;101737.91;5002956;28;20211;-78
2022/03/28 04:59:47;;;;;;;18.90;10.63;;;;;;;2.36;84.81;101730.88;5000936;28;20216;-79
2022/03/28 05:02:16;;;;;;;23.17;12.07;;;;;;;2.38;84.94;101726.47;5000379;28;20214;-79
2022/03/28 05:04:44;;;;;;;24.23;12.53;;;;;;;2.37;84.23;101724.75;5001828;28;20222;-79
2022/03/28 05:07:13;;;;;;;25.43;12.97;;;;;;;2.33;84.17;101723.06;5001878;28;20315;-79
2022/03/28 05:09:39;;;;;;;31.17;13.97;;;;;;;2.28;84.36;101724.88;5001751;28;20207;-79
2022/03/28 05:12:07;;;;;;;26.13;13.67;;;;;;;2.22;84.06;101731.06;5001335;28;20457;-79
2022/03/28 05:14:35;;;;;;;28.23;12.90;;;;;;;2.18;83.73;101728.47;5002004;28;20241;-79
2022/03/28 05:17:05;;;;;;;30.33;13.53;;;;;;;2.15;84.46;101718.03;5000020;28;20698;-78
2022/03/28 05:19:32;;;;;;;28.40;13.57;;;;;;;2.15;84.90;101718.03;5002283;28;20216;-79
2022/03/28 05:21:59;;;;;;;25.60;13.40;;;;;;;2.14;84.39;101711.91;5001156;28;20208;-79
2022/03/28 05:24:26;;;;;;;29.40;13.37;;;;;;;2.17;84.71;101711.84;5002287;28;20571;-80
2022/03/28 05:26:52;;;;;;;32.43;14.30;;;;;;;2.15;84.90;101712.78;5001719;28;20224;-79
2022/03/28 05:29:23;;;;;;;28.03;13.17;;;;;;;2.13;84.41;101719.78;5001144;28;20210;-79
2022/03/28 05:31:52;;;;;;;29.40;13.87;;;;;;;2.12;84.57;101716.31;5002081;28;20211;-79
2022/03/28 05:34:20;;;;;;;27.13;13.97;;;;;;;2.14;84.58;101713.66;5001302;28;20694;-79
2022/03/28 05:36:46;;;;;;;26.53;12.97;;;;;;;2.17;84.96;101709.22;5001115;28;20223;-79
2022/03/28 05:39:14;;;;;;;35.23;14.93;;;;;;;2.20;84.91;101705.69;5001802;28;20210;-79
2022/03/28 05:41:41;;;;;;;38.20;16.07;;;;;;;2.23;85.62;101705.66;5000670;28;20250;-79
2022/03/28 05:44:08;;;;;;;39.63;15.43;;;;;;;2.25;85.87;101702.13;5001007;28;20211;-79
2022/03/28 05:46:34;;;;;;;37.47;16.33;;;;;;;2.28;85.84;101702.09;5001273;28;20231;-78
2022/03/28 05:49:01;;;;;;;49.37;18.80;;;;;;;2.32;85.60;101688.03;5002490;28;20212;-79
2022/03/28 05:51:27;;;;;;;37.20;16.00;;;;;;;2.34;85.94;101687.97;5006967;28;20222;-79
2022/03/28 05:53:54;;;;;;;38.07;15.17;;;;;;;2.37;86.25;101688.81;5003929;28;20196;-79
2022/03/28 05:56:22;;;;;;;33.60;15.93;;;;;;;2.39;86.24;101686.16;5006750;28;20734;-79
2022/03/28 05:58:48;;;;;;;33.87;14.93;;;;;;;2.43;85.85;101687.88;5001133;28;20677;-80
2022/03/28 06:01:15;;;;;;;50.63;16.97;;;;;;;2.48;86.48;101691.31;5001806;28;20564;-79
2022/03/28 06:03:41;;;;;;;51.80;16.87;;;;;;;2.54;87.26;101691.19;5001638;28;20192;-78
2022/03/28 06:06:08;;;;;;;72.33;19.30;;;;;;;2.64;86.92;101691.97;5002095;28;20231;-78
2022/03/28 06:08:36;;;;;;;64.50;20.80;;;;;;;2.72;87.68;101698.84;5001470;28;20266;-78
2022/03/28 06:11:04;;;;;;;111.80;21.13;;;;;;;2.80;87.77;101690.84;5000696;28;20211;-78
2022/03/28 06:13:32;;;;;;;129.67;22.50;;;;;;;2.90;88.79;101683.66;5002040;28;20203;-79
2022/03/28 06:15:58;;;;;;;86.23;19.83;;;;;;;2.98;89.10;101684.44;5003497;28;20231;-78
2022/03/28 06:18:35;;;;;;;;;;;;;;;;;;;;;
2022/03/28 06:21:02;;;;;;;86.13;18.13;;;;;;;3.13;89.25;101685.06;5000746;28;20287;-78
2022/03/28 06:23:33;;;;;;;82.63;19.47;;;;;;;3.19;89.62;101684.09;5002398;28;20216;-79
2022/03/28 06:26:00;;;;;;;54.93;17.33;;;;;;;3.26;90.60;101684.84;5002966;28;20282;-80
2022/03/28 06:28:27;;;;;;;58.40;17.03;;;;;;;3.31;90.59;101686.50;4999053;28;20203;-78
2022/03/28 06:30:55;;;;;;;46.67;16.57;;;;;;;3.37;90.92;101682.91;4999420;28;20294;-79
2022/03/28 06:33:22;;;;;;;69.90;16.87;;;;;;;3.41;90.72;101682.81;4998931;28;20233;-79
2022/03/28 06:35:48;;;;;;;83.53;16.60;;;;;;;3.45;91.45;101686.28;4996698;28;20262;-80
2022/03/28 06:38:15;;;;;;;49.93;16.53;;;;;;;3.47;91.68;101679.22;5001934;28;20216;-78
2022/03/28 06:40:42;;;;;;;75.47;18.10;;;;;;;3.51;92.07;101683.53;5001372;28;20204;-78
2022/03/28 06:43:08;;;;;;;114.37;18.40;;;;;;;3.55;91.53;101671.19;4997331;28;20200;-79
2022/03/28 06:45:36;;;;;;;63.13;15.73;;;;;;;3.56;92.18;101673.81;5000966;28;20233;-79
2022/03/28 06:48:07;;;;;;;92.00;18.43;;;;;;;3.61;92.34;101676.31;5002407;28;20227;-79
2022/03/28 06:50:36;;;;;;;50.27;15.63;;;;;;;3.65;91.89;101672.75;5000409;28;20303;-78
2022/03/28 06:53:03;;;;;;;44.27;14.37;;;;;;;3.70;92.80;101681.44;5000477;28;20214;-79
2022/03/28 06:55:29;;;;;;;61.80;14.63;;;;;;;3.74;92.91;101680.50;4999856;28;20245;-78
2022/03/28 06:57:56;;;;;;;38.60;13.47;;;;;;;3.76;92.76;101671.63;5006172;28;20663;-78
2022/03/28 07:00:24;;;;;;;80.70;15.57;;;;;;;3.82;93.16;101674.16;5004185;28;20294;-79
2022/03/28 07:02:51;;;;;;;52.63;14.30;;;;;;;3.86;93.18;101674.09;5003248;28;20231;-78
2022/03/28 07:05:21;;;;;;;50.30;14.70;;;;;;;3.89;92.91;101669.66;5005567;28;20238;-79
2022/03/28 07:07:50;;;;;;;46.03;14.27;;;;;;;3.93;92.88;101668.69;5005344;28;20250;-79
2022/03/28 07:10:22;;;;;;;38.57;14.53;;;;;;;3.98;93.27;101673.84;5006291;28;20211;-79
2022/03/28 07:12:51;;;;;;;41.80;15.40;;;;;;;4.00;93.61;101672.06;5004518;28;20208;-79
2022/03/28 07:15:18;;;;;;;39.97;15.93;;;;;;;4.05;93.53;101668.44;5004173;28;20230;-78
2022/03/28 07:17:51;;;;;;;44.67;16.50;;;;;;;4.10;94.11;101668.38;5004391;28;20218;-79
2022/03/28 07:20:19;;;;;;;38.97;14.97;;;;;;;4.14;93.66;101662.97;5004068;28;20203;-77
2022/03/28 07:22:48;;;;;;;42.87;14.47;;;;;;;4.18;94.61;101661.16;5004106;28;20215;-78
2022/03/28 07:25:15;;;;;;;41.43;14.80;;;;;;;4.22;94.11;101661.97;5004235;28;20237;-78
2022/03/28 07:27:42;;;;;;;44.53;14.73;;;;;;;4.26;94.47;101661.00;5002675;28;20223;-79
2022/03/28 07:30:10;;;;;;;27.27;14.00;;;;;;;4.31;94.69;101662.63;5003161;28;20568;-79
2022/03/28 07:32:38;;;;;;;41.50;14.83;;;;;;;4.35;94.47;101658.16;5003716;28;20211;-79
2022/03/28 07:35:06;;;;;;;48.57;14.07;;;;;;;4.38;94.73;101658.09;5002824;28;20227;-78
2022/03/28 07:37:37;;;;;;;38.20;14.60;;;;;;;4.38;94.25;101658.09;5002205;28;20787;-79
2022/03/28 07:40:08;;;;;;;53.17;14.23;;;;;;;4.42;94.50;101654.47;5003884;28;20203;-79
2022/03/28 07:42:35;;;;;;;34.40;14.07;;;;;;;4.45;94.82;101659.69;5003258;28;20291;-79
2022/03/28 07:45:04;;;;;;;23.57;12.97;;;;;;;4.47;94.76;101658.78;5002456;28;20286;-79
2022/03/28 07:47:30;;;;;;;29.60;14.13;;;;;;;4.50;95.08;101648.13;5002463;28;20210;-79
2022/03/28 07:49:57;;;;;;;42.43;14.17;;;;;;;4.52;94.85;101654.22;5003926;28;20227;-79
2022/03/28 07:52:24;;;;;;;27.23;12.40;;;;;;;4.56;94.84;101657.69;5004007;28;20647;-79
2022/03/28 07:54:52;;;;;;;23.20;13.30;;;;;;;4.59;94.48;101654.09;5002795;28;20214;-78
2022/03/28 07:57:22;;;;;;;21.67;12.07;;;;;;;4.60;94.42;101654.06;5002494;28;20199;-78
2022/03/28 07:59:49;;;;;;;25.20;12.73;;;;;;;4.65;94.64;101646.06;5003061;28;20208;-79
2022/03/28 08:02:16;;;;;;;24.90;13.00;;;;;;;4.70;94.69;101646.81;5005013;28;20199;-78
2022/03/28 08:04:45;;;;;;;26.47;11.80;;;;;;;4.72;94.56;101639.72;4999521;28;20211;-79
2022/03/28 08:07:12;;;;;;;28.20;11.80;;;;;;;4.73;94.78;101638.81;5002855;28;20234;-79
2022/03/28 08:09:40;;;;;;;21.43;11.67;;;;;;;4.75;94.40;101635.25;5004679;28;20199;-79
2022/03/28 08:12:10;;;;;;;17.73;10.33;;;;;;;4.77;94.11;101641.34;5003611;28;20208;-80
2022/03/28 08:14:38;;;;;;;17.43;10.70;;;;;;;4.80;94.43;101636.00;5004416;28;20689;-79
2022/03/28 08:17:05;;;;;;;20.20;10.60;;;;;;;4.83;93.99;101635.94;5003495;28;20290;-79
2022/03/28 08:19:33;;;;;;;22.50;11.27;;;;;;;4.86;93.98;101638.47;5003440;28;20219;-78
2022/03/28 08:22:00;;;;;;;20.50;9.33;;;;;;;4.91;93.97;101640.16;5004061;28;20598;-79
2022/03/28 08:24:26;;;;;;;18.50;9.93;;;;;;;4.92;93.85;101634.84;5003600;28;20696;-80
2022/03/28 08:26:53;;;;;;;19.33;10.37;;;;;;;4.94;93.88;101640.94;4999261;28;20223;-83
2022/03/28 08:29:21;;;;;;;19.53;10.33;;;;;;;4.95;93.72;101632.13;4998534;28;20290;-82
2022/03/28 08:31:48;;;;;;;17.07;10.07;;;;;;;4.97;93.63;101629.44;4998324;28;20208;-82
2022/03/28 08:34:15;;;;;;;15.37;9.50;;;;;;;4.97;93.26;101627.69;4997561;28;20662;-82
2022/03/28 08:36:42;;;;;;;15.17;9.97;;;;;;;5.00;93.39;101632.03;4997703;28;20235;-82
2022/03/28 08:39:11;;;;;;;16.73;9.40;;;;;;;5.01;92.97;101631.13;4997904;28;20203;-81
2022/03/28 08:41:38;;;;;;;18.07;10.87;;;;;;;5.05;93.14;101619.56;4998059;28;20638;-81
2022/03/28 08:44:05;;;;;;;17.13;11.03;;;;;;;5.08;93.28;101612.44;4996423;28;20208;-81
2022/03/28 08:46:34;;;;;;;19.13;10.53;;;;;;;5.10;92.96;101604.47;4996809;28;20224;-81
2022/03/28 08:49:01;;;;;;;19.80;11.63;;;;;;;5.14;92.87;101603.50;4997678;28;20290;-80
2022/03/28 08:51:28;;;;;;;17.27;11.37;;;;;;;5.17;92.51;101606.06;4997793;28;20227;-80
2022/03/28 08:53:56;;;;;;;19.43;10.70;;;;;;;5.19;92.58;101602.47;4998534;28;20211;-80
2022/03/28 08:56:23;;;;;;;16.97;10.03;;;;;;;5.24;92.10;101600.56;4996064;28;20227;-81
2022/03/28 08:58:49;;;;;;;18.07;10.50;;;;;;;5.30;92.51;101596.91;4996069;28;20215;-81
2022/03/28 09:01:17;;;;;;;14.83;10.40;;;;;;;5.38;92.34;101602.81;4998717;28;20234;-81
2022/03/28 09:03:47;;;;;;;15.27;10.03;;;;;;;5.42;91.93;101599.22;4998379;28;20212;-81
2022/03/28 09:06:32;;;;;;;16.60;10.23;;;;;;;5.47;92.04;101593.81;4996513;28;20226;-81
2022/03/28 09:09:17;;;;;;;15.93;10.93;;;;;;;5.51;91.24;101603.38;4994830;28;20223;-81
2022/03/28 09:11:45;;;;;;;17.00;9.77;;;;;;;5.55;91.60;101597.97;4999159;28;20196;-81
2022/03/28 09:14:27;;;;;;;19.70;10.87;;;;;;;5.61;91.49;101594.28;4994446;28;20535;-81
2022/03/28 09:17:01;;;;;;;18.10;10.87;;;;;;;5.66;91.13;101599.44;4994915;28;20235;-81
2022/03/28 09:19:43;;;;;;;19.43;11.40;;;;;;;5.70;91.06;101609.03;4995333;28;20208;-82
2022/03/28 09:22:14;;;;;;;17.63;10.80;;;;;;;5.73;90.73;101599.22;4998842;28;20203;-82
2022/03/28 09:24:41;;;;;;;15.20;10.90;;;;;;;5.77;90.63;101598.22;4999271;28;20674;-81
2022/03/28 09:27:14;;;;;;;17.77;12.37;;;;;;;5.83;90.43;101595.41;5003800;28;20859;-81
2022/03/28 09:29:59;;;;;;;18.83;11.40;;;;;;;5.89;89.98;101582.06;5010358;28;20215;-82
2022/03/28 09:32:27;;;;;;;18.80;12.13;;;;;;;5.97;90.16;101573.03;5008806;28;20211;-83
2022/03/28 09:35:08;;;;;;;19.97;11.57;;;;;;;6.05;90.13;101578.97;4975842;28;20211;-81
2022/03/28 09:37:51;;;;;;;15.53;11.10;;;;;;;6.13;89.93;101569.00;4976714;28;20221;-82
2022/03/28 09:40:31;;;;;;;21.30;12.60;;;;;;;6.22;90.10;101561.69;4976564;28;20639;-81
2022/03/28 09:42:58;;;;;;;19.40;11.13;;;;;;;6.32;89.85;101556.94;4976656;28;20631;-82
2022/03/28 09:45:28;;;;;;;20.07;11.87;;;;;;;6.42;89.24;101552.25;4976652;28;21083;-82
2022/03/28 09:47:59;;;;;;;19.60;12.37;;;;;;;6.50;89.61;101556.38;4976377;28;20242;-81
2022/03/28 09:50:37;;;;;;;20.03;12.27;;;;;;;6.61;89.10;101561.34;4977512;28;20219;-82
2022/03/28 09:53:15;;;;;;;18.73;11.30;;;;;;;6.69;88.98;101548.69;4999623;28;20204;-83
2022/03/28 09:55:52;;;;;;;22.23;12.27;;;;;;;6.80;88.33;101551.00;4998066;28;20643;-82
2022/03/28 09:58:37;;;;;;;16.07;11.93;;;;;;;6.93;88.51;101553.19;4998154;28;20214;-82
2022/03/28 10:01:07;;;;;;;17.80;11.97;;;;;;;7.04;88.18;101550.16;5000941;28;20234;-83
2022/03/28 10:03:36;;;;;;;18.83;12.17;;;;;;;7.11;86.92;101545.53;4997162;28;20216;-83
2022/03/28 10:06:06;;;;;;;17.03;11.63;;;;;;;7.19;87.27;101546.09;4998318;28;20225;-83
2022/03/28 10:08:33;;;;;;;18.73;12.73;;;;;;;7.29;86.77;101544.88;4993955;28;20214;-83
2022/03/28 10:11:00;;;;;;;17.67;12.33;;;;;;;7.37;86.61;101541.94;5000105;28;20212;-82
2022/03/28 10:13:29;;;;;;;18.97;11.77;;;;;;;7.45;86.23;101537.25;4999277;28;20200;-83
2022/03/28 10:15:56;;;;;;;19.63;12.97;;;;;;;7.55;85.66;101543.91;5009205;28;20227;-83
2022/03/28 10:18:23;;;;;;;21.20;12.30;;;;;;;7.64;84.87;101538.28;4994698;28;20572;-83
2022/03/28 10:20:54;;;;;;;22.67;13.43;;;;;;;7.69;84.60;101535.47;4996085;28;20215;-82
2022/03/28 10:23:24;;;;;;;25.20;13.60;;;;;;;7.76;84.18;101536.97;5001263;28;20226;-82
2022/03/28 10:25:53;;;;;;;26.37;14.03;;;;;;;7.85;83.39;101523.38;4995922;28;20744;-82
2022/03/28 10:28:21;;;;;;;24.47;13.47;;;;;;;7.94;84.05;101523.00;4995455;28;20744;-83
2022/03/28 10:30:48;;;;;;;19.93;12.50;;;;;;;8.04;82.83;101516.44;4995355;28;20246;-83
2022/03/28 10:33:17;;;;;;;24.57;12.60;;;;;;;8.12;82.66;101509.03;4997802;28;20199;-83
2022/03/28 10:35:56;;;;;;;17.00;11.43;;;;;;;8.26;82.52;101509.34;5000301;28;20223;-82
2022/03/28 10:38:24;;;;;;;19.07;10.73;;;;;;;8.33;81.44;101504.69;4991824;28;20218;-83
2022/03/28 10:40:57;;;;;;;15.83;9.97;;;;;;;8.43;81.37;101499.84;4996739;28;20685;-83
2022/03/28 10:43:25;;;;;;;15.17;9.70;;;;;;;8.52;81.54;101492.38;4993183;28;20202;-82
2022/03/28 10:45:55;;;;;;;16.03;10.00;;;;;;;8.65;80.67;101498.03;4997740;28;20220;-82
2022/03/28 10:48:36;;;;;;;18.00;10.80;;;;;;;8.76;79.68;101485.19;4999445;28;20207;-82
2022/03/28 10:51:05;;;;;;;15.60;9.87;;;;;;;8.87;79.12;101477.63;4995717;28;20205;-83
2022/03/28 10:53:37;;;;;;;15.03;9.47;;;;;;;9.01;79.07;101482.34;4997292;28;20214;-83
2022/03/28 10:56:07;;;;;;;18.30;9.47;;;;;;;9.16;78.57;101467.50;4994934;28;20464;-83
2022/03/28 10:58:38;;;;;;;14.20;8.73;;;;;;;9.30;77.50;101470.44;4995440;28;20196;-83
2022/03/28 11:01:25;;;;;;;17.03;10.23;;;;;;;9.41;76.89;101468.13;5000963;28;20199;-83
2022/03/28 11:03:54;;;;;;;14.17;9.37;;;;;;;9.52;75.93;101470.28;4998895;28;20203;-83
2022/03/28 11:06:52;;;;;;;17.33;9.43;;;;;;;9.67;75.39;101473.09;5000380;28;20219;-83
2022/03/28 11:09:53;;;;;;;14.83;8.90;;;;;;;9.86;74.57;101459.81;4996584;28;20254;-83
2022/03/28 11:12:28;;;;;;;15.80;9.53;;;;;;;10.00;74.08;101456.50;4906903;29;20293;-82
2022/03/28 11:14:56;;;;;;;21.70;10.67;;;;;;;10.14;73.36;101454.03;4981597;28;20205;-82
2022/03/28 11:17:25;;;;;;;18.47;10.37;;;;;;;10.29;73.27;101445.31;4994848;28;20226;-83
2022/03/28 11:20:09;;;;;;;18.53;10.53;;;;;;;10.41;72.43;101434.06;4995290;28;20313;-82
2022/03/28 11:22:44;;;;;;;19.90;10.07;;;;;;;10.56;71.85;101440.44;4993085;28;20203;-82
2022/03/28 11:25:47;;;;;;;15.87;10.97;;;;;;;10.72;71.28;101429.84;4994965;28;20589;-82